sensor_id;sensor_type;location;lat;lon;timestamp;P1;durP1;ratioP1;P2;durP2;ratioP2
43744;SDS011;29359;53.048;8.732;2023-08-20T00:01:34;6.60;;;4.72;;
43744;SDS011;29359;53.048;8.732;2023-08-20T00:03:37;6.03;;;4.70;;
43744;SDS011;29359;53.048;8.732;2023-08-20T00:05:40;5.18;;;4.65;;
43744;SDS011;29359;53.048;8.732;2023-08-20T00:07:44;5.68;;;4.80;;
43744;SDS011;29359;53.048;8.732;2023-08-20T00:09:47;6.63;;;4.30;;
43744;SDS011;29359;53.048;8.732;2023-08-20T00:11:49;5.63;;;4.57;;
43744;SDS011;29359;53.048;8.732;2023-08-20T00:13:54;8.98;;;5.05;;
43744;SDS011;29359;53.048;8.732;2023-08-20T00:15:57;6.35;;;4.35;;
43744;SDS011;29359;53.048;8.732;2023-08-20T00:18:00;6.88;;;4.78;;
43744;SDS011;29359;53.048;8.732;2023-08-20T00:20:05;5.13;;;4.72;;
43744;SDS011;29359;53.048;8.732;2023-08-20T00:22:11;5.18;;;4.65;;
43744;SDS011;29359;53.048;8.732;2023-08-20T00:24:15;5.85;;;4.82;;
43744;SDS011;29359;53.048;8.732;2023-08-20T00:26:18;9.32;;;4.97;;
43744;SDS011;29359;53.048;8.732;2023-08-20T00:28:21;5.20;;;4.70;;
43744;SDS011;29359;53.048;8.732;2023-08-20T00:30:25;5.90;;;5.30;;
43744;SDS011;29359;53.048;8.732;2023-08-20T00:32:27;6.32;;;4.75;;
43744;SDS011;29359;53.048;8.732;2023-08-20T00:34:30;8.32;;;5.95;;
43744;SDS011;29359;53.048;8.732;2023-08-20T00:36:33;7.82;;;5.63;;
43744;SDS011;29359;53.048;8.732;2023-08-20T00:38:36;8.27;;;5.25;;
43744;SDS011;29359;53.048;8.732;2023-08-20T00:40:39;6.55;;;5.93;;
43744;SDS011;29359;53.048;8.732;2023-08-20T00:42:40;9.50;;;5.55;;
43744;SDS011;29359;53.048;8.732;2023-08-20T00:44:43;8.45;;;5.07;;
43744;SDS011;29359;53.048;8.732;2023-08-20T00:46:48;11.15;;;6.95;;
43744;SDS011;29359;53.048;8.732;2023-08-20T00:48:51;10.30;;;6.10;;
43744;SDS011;29359;53.048;8.732;2023-08-20T00:50:54;12.02;;;6.65;;
43744;SDS011;29359;53.048;8.732;2023-08-20T00:52:57;8.38;;;6.20;;
43744;SDS011;29359;53.048;8.732;2023-08-20T00:55:01;6.70;;;5.90;;
43744;SDS011;29359;53.048;8.732;2023-08-20T00:57:10;7.28;;;6.03;;
43744;SDS011;29359;53.048;8.732;2023-08-20T00:59:15;10.23;;;6.55;;
43744;SDS011;29359;53.048;8.732;2023-08-20T01:01:18;7.45;;;6.00;;
43744;SDS011;29359;53.048;8.732;2023-08-20T01:03:23;7.22;;;6.38;;
43744;SDS011;29359;53.048;8.732;2023-08-20T01:05:26;11.05;;;6.57;;
43744;SDS011;29359;53.048;8.732;2023-08-20T01:07:33;9.82;;;6.72;;
43744;SDS011;29359;53.048;8.732;2023-08-20T01:09:43;6.82;;;6.07;;
43744;SDS011;29359;53.048;8.732;2023-08-20T01:11:55;6.93;;;6.22;;
43744;SDS011;29359;53.048;8.732;2023-08-20T01:14:01;7.00;;;6.28;;
43744;SDS011;29359;53.048;8.732;2023-08-20T01:16:04;8.35;;;6.30;;
43744;SDS011;29359;53.048;8.732;2023-08-20T01:18:07;7.03;;;6.32;;
43744;SDS011;29359;53.048;8.732;2023-08-20T01:20:10;10.27;;;7.25;;
43744;SDS011;29359;53.048;8.732;2023-08-20T01:22:19;9.30;;;6.78;;
43744;SDS011;29359;53.048;8.732;2023-08-20T01:24:38;8.70;;;6.95;;
43744;SDS011;29359;53.048;8.732;2023-08-20T01:26:50;10.48;;;6.75;;
43744;SDS011;29359;53.048;8.732;2023-08-20T01:29:04;10.27;;;7.03;;
43744;SDS011;29359;53.048;8.732;2023-08-20T01:31:07;11.25;;;6.53;;
43744;SDS011;29359;53.048;8.732;2023-08-20T01:33:11;10.50;;;6.13;;
43744;SDS011;29359;53.048;8.732;2023-08-20T01:35:15;10.00;;;6.90;;
43744;SDS011;29359;53.048;8.732;2023-08-20T01:37:19;7.20;;;6.40;;
43744;SDS011;29359;53.048;8.732;2023-08-20T01:39:22;8.65;;;6.18;;
43744;SDS011;29359;53.048;8.732;2023-08-20T01:41:25;12.32;;;5.63;;
43744;SDS011;29359;53.048;8.732;2023-08-20T01:43:28;9.88;;;5.53;;
43744;SDS011;29359;53.048;8.732;2023-08-20T01:45:32;9.25;;;5.85;;
43744;SDS011;29359;53.048;8.732;2023-08-20T01:47:35;8.32;;;5.60;;
43744;SDS011;29359;53.048;8.732;2023-08-20T01:49:39;8.23;;;5.78;;
43744;SDS011;29359;53.048;8.732;2023-08-20T01:51:41;6.88;;;4.97;;
43744;SDS011;29359;53.048;8.732;2023-08-20T01:53:44;6.55;;;5.45;;
43744;SDS011;29359;53.048;8.732;2023-08-20T01:55:47;7.70;;;5.35;;
43744;SDS011;29359;53.048;8.732;2023-08-20T01:57:50;7.70;;;5.43;;
43744;SDS011;29359;53.048;8.732;2023-08-20T01:59:53;11.43;;;5.03;;
43744;SDS011;29359;53.048;8.732;2023-08-20T02:01:56;5.53;;;4.93;;
43744;SDS011;29359;53.048;8.732;2023-08-20T02:03:59;4.72;;;4.32;;
43744;SDS011;29359;53.048;8.732;2023-08-20T02:06:01;6.93;;;4.80;;
43744;SDS011;29359;53.048;8.732;2023-08-20T02:08:04;11.40;;;5.75;;
43744;SDS011;29359;53.048;8.732;2023-08-20T02:10:08;6.80;;;5.05;;
43744;SDS011;29359;53.048;8.732;2023-08-20T02:12:11;6.32;;;4.93;;
43744;SDS011;29359;53.048;8.732;2023-08-20T02:14:14;6.05;;;4.95;;
43744;SDS011;29359;53.048;8.732;2023-08-20T02:16:17;7.60;;;4.60;;
43744;SDS011;29359;53.048;8.732;2023-08-20T02:18:21;5.15;;;4.70;;
43744;SDS011;29359;53.048;8.732;2023-08-20T02:20:24;6.72;;;4.78;;
43744;SDS011;29359;53.048;8.732;2023-08-20T02:22:28;8.80;;;4.30;;
43744;SDS011;29359;53.048;8.732;2023-08-20T02:24:31;7.82;;;4.20;;
43744;SDS011;29359;53.048;8.732;2023-08-20T02:26:34;4.90;;;4.40;;
43744;SDS011;29359;53.048;8.732;2023-08-20T02:28:36;5.03;;;4.60;;
43744;SDS011;29359;53.048;8.732;2023-08-20T02:30:40;8.30;;;5.30;;
43744;SDS011;29359;53.048;8.732;2023-08-20T02:32:42;5.90;;;4.95;;
43744;SDS011;29359;53.048;8.732;2023-08-20T02:34:49;9.55;;;5.00;;
43744;SDS011;29359;53.048;8.732;2023-08-20T02:36:52;6.25;;;4.30;;
43744;SDS011;29359;53.048;8.732;2023-08-20T02:38:55;5.05;;;4.20;;
43744;SDS011;29359;53.048;8.732;2023-08-20T02:40:58;4.78;;;4.28;;
43744;SDS011;29359;53.048;8.732;2023-08-20T02:43:01;6.00;;;3.65;;
43744;SDS011;29359;53.048;8.732;2023-08-20T02:45:03;6.25;;;4.22;;
43744;SDS011;29359;53.048;8.732;2023-08-20T02:47:06;5.95;;;4.32;;
43744;SDS011;29359;53.048;8.732;2023-08-20T02:49:09;5.03;;;4.60;;
43744;SDS011;29359;53.048;8.732;2023-08-20T02:51:13;6.05;;;4.22;;
43744;SDS011;29359;53.048;8.732;2023-08-20T02:53:16;12.38;;;4.85;;
43744;SDS011;29359;53.048;8.732;2023-08-20T02:55:19;8.07;;;4.97;;
43744;SDS011;29359;53.048;8.732;2023-08-20T02:57:22;5.60;;;4.95;;
43744;SDS011;29359;53.048;8.732;2023-08-20T02:59:25;10.70;;;4.93;;
43744;SDS011;29359;53.048;8.732;2023-08-20T03:01:28;10.98;;;4.25;;
43744;SDS011;29359;53.048;8.732;2023-08-20T03:03:31;12.80;;;4.55;;
43744;SDS011;29359;53.048;8.732;2023-08-20T03:05:34;7.57;;;5.20;;
43744;SDS011;29359;53.048;8.732;2023-08-20T03:07:38;9.90;;;4.95;;
43744;SDS011;29359;53.048;8.732;2023-08-20T03:09:41;5.50;;;4.38;;
43744;SDS011;29359;53.048;8.732;2023-08-20T03:11:44;10.73;;;4.45;;
43744;SDS011;29359;53.048;8.732;2023-08-20T03:13:47;11.50;;;4.32;;
43744;SDS011;29359;53.048;8.732;2023-08-20T03:15:50;9.10;;;4.97;;
43744;SDS011;29359;53.048;8.732;2023-08-20T03:17:53;9.70;;;4.70;;
43744;SDS011;29359;53.048;8.732;2023-08-20T03:19:56;6.22;;;4.22;;
43744;SDS011;29359;53.048;8.732;2023-08-20T03:22:00;7.88;;;4.45;;
43744;SDS011;29359;53.048;8.732;2023-08-20T03:24:04;4.82;;;4.28;;
43744;SDS011;29359;53.048;8.732;2023-08-20T03:26:08;7.72;;;4.25;;
43744;SDS011;29359;53.048;8.732;2023-08-20T03:28:11;14.27;;;5.13;;
43744;SDS011;29359;53.048;8.732;2023-08-20T03:30:14;7.10;;;4.43;;
43744;SDS011;29359;53.048;8.732;2023-08-20T03:32:17;6.13;;;4.47;;
43744;SDS011;29359;53.048;8.732;2023-08-20T03:34:20;8.60;;;4.10;;
43744;SDS011;29359;53.048;8.732;2023-08-20T03:36:24;10.52;;;4.72;;
43744;SDS011;29359;53.048;8.732;2023-08-20T03:38:26;7.30;;;4.82;;
43744;SDS011;29359;53.048;8.732;2023-08-20T03:40:31;5.03;;;4.53;;
43744;SDS011;29359;53.048;8.732;2023-08-20T03:42:33;5.25;;;4.47;;
43744;SDS011;29359;53.048;8.732;2023-08-20T03:44:36;8.30;;;4.55;;
43744;SDS011;29359;53.048;8.732;2023-08-20T03:46:39;5.10;;;4.60;;
43744;SDS011;29359;53.048;8.732;2023-08-20T03:48:42;4.50;;;3.97;;
43744;SDS011;29359;53.048;8.732;2023-08-20T03:50:45;8.85;;;4.40;;
43744;SDS011;29359;53.048;8.732;2023-08-20T03:52:48;7.03;;;4.70;;
43744;SDS011;29359;53.048;8.732;2023-08-20T03:54:50;7.32;;;4.45;;
43744;SDS011;29359;53.048;8.732;2023-08-20T03:56:55;9.68;;;4.13;;
43744;SDS011;29359;53.048;8.732;2023-08-20T03:58:58;6.70;;;4.03;;
43744;SDS011;29359;53.048;8.732;2023-08-20T04:01:00;7.80;;;4.60;;
43744;SDS011;29359;53.048;8.732;2023-08-20T04:03:05;5.53;;;4.43;;
43744;SDS011;29359;53.048;8.732;2023-08-20T04:05:08;5.10;;;4.60;;
43744;SDS011;29359;53.048;8.732;2023-08-20T04:07:09;12.68;;;3.92;;
43744;SDS011;29359;53.048;8.732;2023-08-20T04:09:12;4.22;;;3.83;;
43744;SDS011;29359;53.048;8.732;2023-08-20T04:11:14;6.20;;;3.90;;
43744;SDS011;29359;53.048;8.732;2023-08-20T04:13:18;5.72;;;4.85;;
43744;SDS011;29359;53.048;8.732;2023-08-20T04:15:21;6.03;;;4.47;;
43744;SDS011;29359;53.048;8.732;2023-08-20T04:17:24;7.50;;;4.28;;
43744;SDS011;29359;53.048;8.732;2023-08-20T04:19:27;4.80;;;4.00;;
43744;SDS011;29359;53.048;8.732;2023-08-20T04:21:30;5.50;;;4.43;;
43744;SDS011;29359;53.048;8.732;2023-08-20T04:23:33;5.03;;;4.53;;
43744;SDS011;29359;53.048;8.732;2023-08-20T04:25:35;8.98;;;4.68;;
43744;SDS011;29359;53.048;8.732;2023-08-20T04:27:38;7.00;;;4.60;;
43744;SDS011;29359;53.048;8.732;2023-08-20T04:29:42;10.05;;;4.60;;
43744;SDS011;29359;53.048;8.732;2023-08-20T04:31:45;4.93;;;4.38;;
43744;SDS011;29359;53.048;8.732;2023-08-20T04:33:48;7.82;;;4.80;;
43744;SDS011;29359;53.048;8.732;2023-08-20T04:35:51;10.60;;;5.07;;
43744;SDS011;29359;53.048;8.732;2023-08-20T04:37:54;7.45;;;4.53;;
43744;SDS011;29359;53.048;8.732;2023-08-20T04:39:57;7.55;;;5.20;;
43744;SDS011;29359;53.048;8.732;2023-08-20T04:41:59;8.68;;;4.75;;
43744;SDS011;29359;53.048;8.732;2023-08-20T04:44:02;6.47;;;4.93;;
43744;SDS011;29359;53.048;8.732;2023-08-20T04:46:07;9.00;;;4.75;;
43744;SDS011;29359;53.048;8.732;2023-08-20T04:48:10;6.15;;;5.43;;
43744;SDS011;29359;53.048;8.732;2023-08-20T04:50:13;8.32;;;5.30;;
43744;SDS011;29359;53.048;8.732;2023-08-20T04:52:15;9.23;;;5.40;;
43744;SDS011;29359;53.048;8.732;2023-08-20T04:54:18;5.75;;;5.10;;
43744;SDS011;29359;53.048;8.732;2023-08-20T04:56:21;6.10;;;5.30;;
43744;SDS011;29359;53.048;8.732;2023-08-20T04:58:23;7.07;;;5.47;;
43744;SDS011;29359;53.048;8.732;2023-08-20T05:00:26;7.35;;;5.22;;
43744;SDS011;29359;53.048;8.732;2023-08-20T05:02:29;5.30;;;4.43;;
43744;SDS011;29359;53.048;8.732;2023-08-20T05:04:32;8.25;;;5.30;;
43744;SDS011;29359;53.048;8.732;2023-08-20T05:06:35;12.07;;;5.40;;
43744;SDS011;29359;53.048;8.732;2023-08-20T05:08:38;6.50;;;4.72;;
43744;SDS011;29359;53.048;8.732;2023-08-20T05:10:41;9.57;;;4.50;;
43744;SDS011;29359;53.048;8.732;2023-08-20T05:12:44;5.53;;;4.72;;
43744;SDS011;29359;53.048;8.732;2023-08-20T05:14:46;7.03;;;4.90;;
43744;SDS011;29359;53.048;8.732;2023-08-20T05:16:49;8.25;;;5.10;;
43744;SDS011;29359;53.048;8.732;2023-08-20T05:18:53;6.15;;;5.32;;
43744;SDS011;29359;53.048;8.732;2023-08-20T05:20:56;7.68;;;4.35;;
43744;SDS011;29359;53.048;8.732;2023-08-20T05:22:59;8.98;;;5.70;;
43744;SDS011;29359;53.048;8.732;2023-08-20T05:25:02;8.10;;;4.90;;
43744;SDS011;29359;53.048;8.732;2023-08-20T05:27:06;9.15;;;5.20;;
43744;SDS011;29359;53.048;8.732;2023-08-20T05:29:10;7.35;;;5.95;;
43744;SDS011;29359;53.048;8.732;2023-08-20T05:31:12;7.50;;;5.97;;
43744;SDS011;29359;53.048;8.732;2023-08-20T05:33:15;7.55;;;5.55;;
43744;SDS011;29359;53.048;8.732;2023-08-20T05:35:19;9.55;;;6.13;;
43744;SDS011;29359;53.048;8.732;2023-08-20T05:37:22;8.35;;;5.75;;
43744;SDS011;29359;53.048;8.732;2023-08-20T05:39:25;10.60;;;6.38;;
43744;SDS011;29359;53.048;8.732;2023-08-20T05:41:28;11.05;;;6.32;;
43744;SDS011;29359;53.048;8.732;2023-08-20T05:43:31;7.18;;;6.07;;
43744;SDS011;29359;53.048;8.732;2023-08-20T05:45:33;10.18;;;6.03;;
43744;SDS011;29359;53.048;8.732;2023-08-20T05:47:36;6.82;;;6.10;;
43744;SDS011;29359;53.048;8.732;2023-08-20T05:49:39;9.65;;;6.70;;
43744;SDS011;29359;53.048;8.732;2023-08-20T05:51:43;7.63;;;5.93;;
43744;SDS011;29359;53.048;8.732;2023-08-20T05:53:46;11.32;;;6.18;;
43744;SDS011;29359;53.048;8.732;2023-08-20T05:55:49;8.90;;;6.45;;
43744;SDS011;29359;53.048;8.732;2023-08-20T05:57:52;6.82;;;6.18;;
43744;SDS011;29359;53.048;8.732;2023-08-20T05:59:55;9.00;;;5.55;;
43744;SDS011;29359;53.048;8.732;2023-08-20T06:01:57;11.15;;;6.00;;
43744;SDS011;29359;53.048;8.732;2023-08-20T06:04:01;9.73;;;6.50;;
43744;SDS011;29359;53.048;8.732;2023-08-20T06:06:03;8.45;;;5.47;;
43744;SDS011;29359;53.048;8.732;2023-08-20T06:08:11;8.15;;;5.60;;
43744;SDS011;29359;53.048;8.732;2023-08-20T06:10:13;10.90;;;5.60;;
43744;SDS011;29359;53.048;8.732;2023-08-20T06:12:16;9.85;;;5.68;;
43744;SDS011;29359;53.048;8.732;2023-08-20T06:14:19;6.00;;;5.20;;
43744;SDS011;29359;53.048;8.732;2023-08-20T06:16:22;6.00;;;5.15;;
43744;SDS011;29359;53.048;8.732;2023-08-20T06:18:25;8.27;;;5.10;;
43744;SDS011;29359;53.048;8.732;2023-08-20T06:20:28;12.77;;;5.65;;
43744;SDS011;29359;53.048;8.732;2023-08-20T06:22:30;7.88;;;5.40;;
43744;SDS011;29359;53.048;8.732;2023-08-20T06:24:35;9.40;;;5.40;;
43744;SDS011;29359;53.048;8.732;2023-08-20T06:26:38;10.48;;;5.05;;
43744;SDS011;29359;53.048;8.732;2023-08-20T06:28:40;7.97;;;4.72;;
43744;SDS011;29359;53.048;8.732;2023-08-20T06:30:44;6.65;;;5.00;;
43744;SDS011;29359;53.048;8.732;2023-08-20T06:32:46;8.88;;;4.47;;
43744;SDS011;29359;53.048;8.732;2023-08-20T06:34:49;9.40;;;4.70;;
43744;SDS011;29359;53.048;8.732;2023-08-20T06:36:52;10.88;;;4.85;;
43744;SDS011;29359;53.048;8.732;2023-08-20T06:38:55;10.52;;;4.53;;
43744;SDS011;29359;53.048;8.732;2023-08-20T06:40:59;6.97;;;4.40;;
43744;SDS011;29359;53.048;8.732;2023-08-20T06:43:02;7.72;;;4.25;;
43744;SDS011;29359;53.048;8.732;2023-08-20T06:45:05;9.65;;;4.40;;
43744;SDS011;29359;53.048;8.732;2023-08-20T06:47:09;9.88;;;4.63;;
43744;SDS011;29359;53.048;8.732;2023-08-20T06:49:13;8.15;;;4.38;;
43744;SDS011;29359;53.048;8.732;2023-08-20T06:51:18;9.80;;;4.68;;
43744;SDS011;29359;53.048;8.732;2023-08-20T06:53:21;10.95;;;4.30;;
43744;SDS011;29359;53.048;8.732;2023-08-20T06:55:25;7.22;;;4.35;;
43744;SDS011;29359;53.048;8.732;2023-08-20T06:57:29;5.65;;;3.92;;
43744;SDS011;29359;53.048;8.732;2023-08-20T06:59:32;7.25;;;3.70;;
43744;SDS011;29359;53.048;8.732;2023-08-20T07:01:36;9.43;;;3.53;;
43744;SDS011;29359;53.048;8.732;2023-08-20T07:03:39;7.22;;;3.38;;
43744;SDS011;29359;53.048;8.732;2023-08-20T07:05:43;7.68;;;3.75;;
43744;SDS011;29359;53.048;8.732;2023-08-20T07:07:45;9.40;;;3.65;;
43744;SDS011;29359;53.048;8.732;2023-08-20T07:09:48;8.50;;;3.00;;
43744;SDS011;29359;53.048;8.732;2023-08-20T07:11:51;7.93;;;3.05;;
43744;SDS011;29359;53.048;8.732;2023-08-20T07:13:55;8.20;;;3.28;;
43744;SDS011;29359;53.048;8.732;2023-08-20T07:15:58;8.90;;;2.97;;
43744;SDS011;29359;53.048;8.732;2023-08-20T07:18:02;7.25;;;2.90;;
43744;SDS011;29359;53.048;8.732;2023-08-20T07:20:05;10.60;;;3.35;;
43744;SDS011;29359;53.048;8.732;2023-08-20T07:22:09;10.07;;;2.80;;
43744;SDS011;29359;53.048;8.732;2023-08-20T07:24:12;6.15;;;2.75;;
43744;SDS011;29359;53.048;8.732;2023-08-20T07:26:15;11.70;;;3.17;;
43744;SDS011;29359;53.048;8.732;2023-08-20T07:28:18;7.93;;;2.95;;
43744;SDS011;29359;53.048;8.732;2023-08-20T07:30:29;8.57;;;2.60;;
43744;SDS011;29359;53.048;8.732;2023-08-20T07:32:32;6.13;;;2.63;;
43744;SDS011;29359;53.048;8.732;2023-08-20T07:34:35;4.78;;;2.42;;
43744;SDS011;29359;53.048;8.732;2023-08-20T07:36:37;7.25;;;2.67;;
43744;SDS011;29359;53.048;8.732;2023-08-20T07:38:40;6.65;;;2.88;;
43744;SDS011;29359;53.048;8.732;2023-08-20T07:40:44;5.75;;;2.47;;
43744;SDS011;29359;53.048;8.732;2023-08-20T07:42:47;6.80;;;2.83;;
43744;SDS011;29359;53.048;8.732;2023-08-20T07:44:51;8.85;;;2.67;;
43744;SDS011;29359;53.048;8.732;2023-08-20T07:46:55;7.10;;;2.53;;
43744;SDS011;29359;53.048;8.732;2023-08-20T07:48:57;5.43;;;2.40;;
43744;SDS011;29359;53.048;8.732;2023-08-20T07:51:00;10.52;;;2.40;;
43744;SDS011;29359;53.048;8.732;2023-08-20T07:53:03;8.77;;;2.35;;
43744;SDS011;29359;53.048;8.732;2023-08-20T07:55:06;7.68;;;2.55;;
43744;SDS011;29359;53.048;8.732;2023-08-20T07:57:10;8.63;;;2.28;;
43744;SDS011;29359;53.048;8.732;2023-08-20T07:59:12;9.70;;;2.40;;
43744;SDS011;29359;53.048;8.732;2023-08-20T08:01:15;6.25;;;2.15;;
43744;SDS011;29359;53.048;8.732;2023-08-20T08:03:19;6.90;;;1.85;;
43744;SDS011;29359;53.048;8.732;2023-08-20T08:05:22;5.57;;;1.90;;
43744;SDS011;29359;53.048;8.732;2023-08-20T08:07:25;9.52;;;2.60;;
43744;SDS011;29359;53.048;8.732;2023-08-20T08:09:29;3.75;;;1.60;;
43744;SDS011;29359;53.048;8.732;2023-08-20T08:11:32;10.38;;;2.40;;
43744;SDS011;29359;53.048;8.732;2023-08-20T08:13:35;4.03;;;1.70;;
43744;SDS011;29359;53.048;8.732;2023-08-20T08:15:38;12.60;;;1.70;;
43744;SDS011;29359;53.048;8.732;2023-08-20T08:17:41;8.38;;;2.15;;
43744;SDS011;29359;53.048;8.732;2023-08-20T08:19:46;6.00;;;1.70;;
43744;SDS011;29359;53.048;8.732;2023-08-20T08:21:51;4.28;;;1.40;;
43744;SDS011;29359;53.048;8.732;2023-08-20T08:23:54;4.38;;;1.63;;
43744;SDS011;29359;53.048;8.732;2023-08-20T08:25:57;5.15;;;2.00;;
43744;SDS011;29359;53.048;8.732;2023-08-20T08:28:00;8.38;;;1.70;;
43744;SDS011;29359;53.048;8.732;2023-08-20T08:30:04;8.85;;;1.83;;
43744;SDS011;29359;53.048;8.732;2023-08-20T08:32:08;4.88;;;1.52;;
43744;SDS011;29359;53.048;8.732;2023-08-20T08:34:11;8.73;;;2.17;;
43744;SDS011;29359;53.048;8.732;2023-08-20T08:36:15;7.05;;;1.67;;
43744;SDS011;29359;53.048;8.732;2023-08-20T08:38:18;9.93;;;1.60;;
43744;SDS011;29359;53.048;8.732;2023-08-20T08:40:21;11.48;;;1.83;;
43744;SDS011;29359;53.048;8.732;2023-08-20T08:42:24;6.70;;;1.80;;
43744;SDS011;29359;53.048;8.732;2023-08-20T08:44:27;5.93;;;1.90;;
43744;SDS011;29359;53.048;8.732;2023-08-20T08:46:30;9.65;;;2.15;;
43744;SDS011;29359;53.048;8.732;2023-08-20T08:48:34;8.80;;;2.10;;
43744;SDS011;29359;53.048;8.732;2023-08-20T08:50:38;4.55;;;2.13;;
43744;SDS011;29359;53.048;8.732;2023-08-20T08:52:43;6.25;;;2.03;;
43744;SDS011;29359;53.048;8.732;2023-08-20T08:54:49;8.63;;;2.33;;
43744;SDS011;29359;53.048;8.732;2023-08-20T08:56:51;8.02;;;2.20;;
43744;SDS011;29359;53.048;8.732;2023-08-20T08:58:54;6.43;;;2.03;;
43744;SDS011;29359;53.048;8.732;2023-08-20T09:00:57;7.80;;;2.90;;
43744;SDS011;29359;53.048;8.732;2023-08-20T09:02:58;8.30;;;2.80;;
43744;SDS011;29359;53.048;8.732;2023-08-20T09:05:01;5.93;;;2.20;;
43744;SDS011;29359;53.048;8.732;2023-08-20T09:07:04;8.82;;;2.83;;
43744;SDS011;29359;53.048;8.732;2023-08-20T09:09:09;8.68;;;2.88;;
43744;SDS011;29359;53.048;8.732;2023-08-20T09:11:12;4.22;;;2.10;;
43744;SDS011;29359;53.048;8.732;2023-08-20T09:13:14;10.73;;;2.83;;
43744;SDS011;29359;53.048;8.732;2023-08-20T09:15:18;8.73;;;2.45;;
43744;SDS011;29359;53.048;8.732;2023-08-20T09:17:21;5.97;;;2.53;;
43744;SDS011;29359;53.048;8.732;2023-08-20T09:19:28;5.05;;;2.28;;
43744;SDS011;29359;53.048;8.732;2023-08-20T09:21:34;7.72;;;2.20;;
43744;SDS011;29359;53.048;8.732;2023-08-20T09:23:37;6.57;;;2.60;;
43744;SDS011;29359;53.048;8.732;2023-08-20T09:25:42;10.40;;;2.58;;
43744;SDS011;29359;53.048;8.732;2023-08-20T09:27:46;9.38;;;2.78;;
43744;SDS011;29359;53.048;8.732;2023-08-20T09:29:49;8.73;;;2.30;;
43744;SDS011;29359;53.048;8.732;2023-08-20T09:31:59;9.65;;;2.75;;
43744;SDS011;29359;53.048;8.732;2023-08-20T09:34:03;6.28;;;2.45;;
43744;SDS011;29359;53.048;8.732;2023-08-20T09:36:07;5.60;;;2.45;;
43744;SDS011;29359;53.048;8.732;2023-08-20T09:42:38;6.72;;;2.78;;
43744;SDS011;29359;53.048;8.732;2023-08-20T09:44:42;9.27;;;2.63;;
43744;SDS011;29359;53.048;8.732;2023-08-20T09:46:48;12.35;;;3.10;;
43744;SDS011;29359;53.048;8.732;2023-08-20T09:48:51;8.13;;;3.17;;
43744;SDS011;29359;53.048;8.732;2023-08-20T09:50:54;5.05;;;2.92;;
43744;SDS011;29359;53.048;8.732;2023-08-20T09:53:02;8.07;;;3.35;;
43744;SDS011;29359;53.048;8.732;2023-08-20T09:55:09;8.20;;;3.38;;
43744;SDS011;29359;53.048;8.732;2023-08-20T09:57:18;8.30;;;2.70;;
43744;SDS011;29359;53.048;8.732;2023-08-20T09:59:31;10.05;;;3.15;;
43744;SDS011;29359;53.048;8.732;2023-08-20T10:01:37;9.40;;;2.92;;
43744;SDS011;29359;53.048;8.732;2023-08-20T10:03:41;6.45;;;2.78;;
43744;SDS011;29359;53.048;8.732;2023-08-20T10:05:44;8.82;;;3.70;;
43744;SDS011;29359;53.048;8.732;2023-08-20T10:07:49;8.63;;;3.88;;
43744;SDS011;29359;53.048;8.732;2023-08-20T10:09:52;6.78;;;2.88;;
43744;SDS011;29359;53.048;8.732;2023-08-20T10:11:55;7.60;;;3.08;;
43744;SDS011;29359;53.048;8.732;2023-08-20T10:13:58;7.72;;;3.63;;
43744;SDS011;29359;53.048;8.732;2023-08-20T10:16:03;13.00;;;3.38;;
43744;SDS011;29359;53.048;8.732;2023-08-20T10:18:07;7.93;;;3.38;;
43744;SDS011;29359;53.048;8.732;2023-08-20T10:20:12;8.43;;;3.45;;
43744;SDS011;29359;53.048;8.732;2023-08-20T10:22:15;15.27;;;4.15;;
43744;SDS011;29359;53.048;8.732;2023-08-20T10:24:18;10.13;;;3.40;;
43744;SDS011;29359;53.048;8.732;2023-08-20T10:26:22;8.45;;;3.28;;
43744;SDS011;29359;53.048;8.732;2023-08-20T10:28:25;7.72;;;3.30;;
43744;SDS011;29359;53.048;8.732;2023-08-20T10:30:29;7.18;;;3.40;;
43744;SDS011;29359;53.048;8.732;2023-08-20T10:32:44;6.70;;;3.97;;
43744;SDS011;29359;53.048;8.732;2023-08-20T10:34:51;5.95;;;3.53;;
43744;SDS011;29359;53.048;8.732;2023-08-20T10:36:54;8.50;;;3.53;;
43744;SDS011;29359;53.048;8.732;2023-08-20T10:38:56;5.20;;;3.90;;
43744;SDS011;29359;53.048;8.732;2023-08-20T10:40:59;10.00;;;3.28;;
43744;SDS011;29359;53.048;8.732;2023-08-20T10:43:01;9.80;;;3.13;;
43744;SDS011;29359;53.048;8.732;2023-08-20T10:45:05;11.18;;;3.33;;
43744;SDS011;29359;53.048;8.732;2023-08-20T10:47:10;6.80;;;3.33;;
43744;SDS011;29359;53.048;8.732;2023-08-20T10:49:19;8.65;;;3.50;;
43744;SDS011;29359;53.048;8.732;2023-08-20T10:51:24;7.88;;;3.22;;
43744;SDS011;29359;53.048;8.732;2023-08-20T10:53:29;9.77;;;3.05;;
43744;SDS011;29359;53.048;8.732;2023-08-20T10:55:31;7.07;;;3.45;;
43744;SDS011;29359;53.048;8.732;2023-08-20T10:57:34;7.03;;;3.38;;
43744;SDS011;29359;53.048;8.732;2023-08-20T10:59:38;9.73;;;3.88;;
43744;SDS011;29359;53.048;8.732;2023-08-20T11:01:43;10.00;;;3.45;;
43744;SDS011;29359;53.048;8.732;2023-08-20T11:03:47;10.50;;;3.50;;
43744;SDS011;29359;53.048;8.732;2023-08-20T11:05:53;10.13;;;3.10;;
43744;SDS011;29359;53.048;8.732;2023-08-20T11:07:56;5.35;;;2.67;;
43744;SDS011;29359;53.048;8.732;2023-08-20T11:09:59;7.35;;;2.60;;
43744;SDS011;29359;53.048;8.732;2023-08-20T11:12:03;4.88;;;2.45;;
43744;SDS011;29359;53.048;8.732;2023-08-20T11:14:07;4.70;;;2.90;;
43744;SDS011;29359;53.048;8.732;2023-08-20T11:16:15;5.38;;;3.10;;
43744;SDS011;29359;53.048;8.732;2023-08-20T11:18:18;9.13;;;3.20;;
43744;SDS011;29359;53.048;8.732;2023-08-20T11:20:20;9.38;;;3.45;;
43744;SDS011;29359;53.048;8.732;2023-08-20T11:22:24;8.82;;;3.28;;
43744;SDS011;29359;53.048;8.732;2023-08-20T11:24:28;3.72;;;2.00;;
43744;SDS011;29359;53.048;8.732;2023-08-20T11:26:31;9.68;;;2.85;;
43744;SDS011;29359;53.048;8.732;2023-08-20T11:28:35;7.18;;;2.67;;
43744;SDS011;29359;53.048;8.732;2023-08-20T11:30:37;8.93;;;1.88;;
43744;SDS011;29359;53.048;8.732;2023-08-20T11:32:40;6.82;;;2.28;;
43744;SDS011;29359;53.048;8.732;2023-08-20T11:34:44;7.47;;;2.25;;
43744;SDS011;29359;53.048;8.732;2023-08-20T11:36:47;4.65;;;2.00;;
43744;SDS011;29359;53.048;8.732;2023-08-20T11:38:51;7.22;;;2.10;;
43744;SDS011;29359;53.048;8.732;2023-08-20T11:40:55;4.85;;;2.20;;
43744;SDS011;29359;53.048;8.732;2023-08-20T11:42:58;6.40;;;2.10;;
43744;SDS011;29359;53.048;8.732;2023-08-20T11:45:00;4.80;;;2.30;;
43744;SDS011;29359;53.048;8.732;2023-08-20T11:47:12;4.90;;;1.90;;
43744;SDS011;29359;53.048;8.732;2023-08-20T11:49:15;2.63;;;1.70;;
43744;SDS011;29359;53.048;8.732;2023-08-20T11:51:18;7.20;;;2.03;;
43744;SDS011;29359;53.048;8.732;2023-08-20T11:53:21;8.65;;;2.35;;
43744;SDS011;29359;53.048;8.732;2023-08-20T11:55:26;5.45;;;1.95;;
43744;SDS011;29359;53.048;8.732;2023-08-20T11:57:32;4.85;;;1.73;;
43744;SDS011;29359;53.048;8.732;2023-08-20T11:59:35;7.85;;;1.90;;
43744;SDS011;29359;53.048;8.732;2023-08-20T12:01:38;8.30;;;2.17;;
43744;SDS011;29359;53.048;8.732;2023-08-20T12:03:41;3.75;;;1.70;;
43744;SDS011;29359;53.048;8.732;2023-08-20T12:05:46;5.85;;;2.35;;
43744;SDS011;29359;53.048;8.732;2023-08-20T12:07:59;4.00;;;1.70;;
43744;SDS011;29359;53.048;8.732;2023-08-20T12:12:25;5.78;;;1.80;;
43744;SDS011;29359;53.048;8.732;2023-08-20T12:14:28;6.63;;;1.70;;
43744;SDS011;29359;53.048;8.732;2023-08-20T12:16:31;5.93;;;1.73;;
43744;SDS011;29359;53.048;8.732;2023-08-20T12:18:34;7.72;;;1.80;;
43744;SDS011;29359;53.048;8.732;2023-08-20T12:20:37;2.80;;;1.80;;
43744;SDS011;29359;53.048;8.732;2023-08-20T12:22:40;5.68;;;1.60;;
43744;SDS011;29359;53.048;8.732;2023-08-20T12:24:42;4.43;;;2.00;;
43744;SDS011;29359;53.048;8.732;2023-08-20T12:26:44;6.10;;;1.83;;
43744;SDS011;29359;53.048;8.732;2023-08-20T12:28:48;2.92;;;1.45;;
43744;SDS011;29359;53.048;8.732;2023-08-20T12:30:51;7.55;;;1.45;;